createdAt,value
2023-01-05T20:26:46.602Z,97986.09
2023-01-05T20:29:15.119Z,97983.97
2023-01-05T20:31:44.946Z,97992.69
2023-01-05T20:34:15.520Z,97995.00
2023-01-05T20:36:43.338Z,97991.94
2023-01-05T20:39:13.875Z,97997.06
2023-01-05T20:41:42.382Z,97994.19
2023-01-05T20:44:09.844Z,97999.47
2023-01-05T20:46:42.257Z,98010.47
2023-01-05T20:49:09.479Z,97997.69
2023-01-05T20:51:36.415Z,98003.03
2023-01-05T20:54:05.783Z,98000.91
2023-01-05T20:56:38.464Z,98003.50
2023-01-05T20:59:08.281Z,98004.03
2023-01-05T21:01:36.112Z,97998.59
2023-01-05T21:04:03.965Z,98001.25
2023-01-05T21:06:32.912Z,97995.63
2023-01-05T21:09:02.266Z,97994.72
2023-01-05T21:11:29.634Z,97994.13
2023-01-05T21:13:57.883Z,97995.75
2023-01-05T21:16:37.270Z,97997.72
2023-01-05T21:19:04.392Z,97998.44
2023-01-05T21:21:31.864Z,98003.00
2023-01-05T21:23:58.488Z,98003.56
2023-01-05T21:26:27.695Z,98010.81
2023-01-05T21:28:54.746Z,98005.63
2023-01-05T21:31:23.926Z,98012.81
2023-01-05T21:33:50.967Z,98001.50
2023-01-05T21:36:26.080Z,98007.13
2023-01-05T21:39:01.790Z,98010.28
2023-01-05T21:41:52.316Z,98005.53
2023-01-05T21:44:19.952Z,98005.28
2023-01-05T21:46:47.486Z,98003.56
2023-01-05T21:49:14.571Z,97997.97
2023-01-05T21:51:59.878Z,97996.28
2023-01-05T21:54:47.357Z,97993.69
2023-01-05T21:57:13.845Z,97994.38
2023-01-05T21:59:40.597Z,97992.53
2023-01-05T22:02:07.379Z,97998.81
2023-01-05T22:04:36.268Z,97994.25
2023-01-05T22:07:05.344Z,97999.66
2023-01-05T22:09:31.876Z,98004.66
2023-01-05T22:11:58.458Z,98006.72
2023-01-05T22:14:25.081Z,97996.28
2023-01-05T22:16:51.591Z,98010.06
2023-01-05T22:19:18.069Z,98008.38
2023-01-05T22:21:44.658Z,98001.31
2023-01-05T22:24:12.713Z,97996.78
2023-01-05T22:26:39.516Z,97989.91
2023-01-05T22:29:06.023Z,97986.78
2023-01-05T22:31:36.207Z,97991.63
2023-01-05T22:34:03.403Z,97993.28
2023-01-05T22:36:31.187Z,97996.81
2023-01-05T22:38:58.505Z,97982.34
2023-01-05T22:41:27.783Z,97987.94
2023-01-05T22:43:55.414Z,97985.88
2023-01-05T22:46:26.431Z,97987.59
2023-01-05T22:48:54.440Z,97993.63
2023-01-05T22:51:23.180Z,97996.34
2023-01-05T22:53:52.332Z,97998.25
2023-01-05T22:56:21.656Z,97995.84
2023-01-05T22:58:48.704Z,97997.69
2023-01-05T23:01:18.633Z,97998.53
2023-01-05T23:03:45.658Z,97996.97
2023-01-05T23:06:12.385Z,97998.25
2023-01-05T23:08:40.309Z,97992.38
2023-01-05T23:11:13.100Z,97990.44
2023-01-05T23:13:40.004Z,97991.13
2023-01-05T23:16:07.939Z,97985.44
2023-01-05T23:18:36.539Z,97993.13
2023-01-05T23:21:05.707Z,97985.31
2023-01-05T23:23:32.466Z,97987.00
2023-01-05T23:25:59.308Z,97979.84
2023-01-05T23:28:27.305Z,97980.34
2023-01-05T23:30:55.745Z,97978.00
2023-01-05T23:33:23.889Z,97972.91
2023-01-05T23:35:52.121Z,97973.28
2023-01-05T23:38:19.450Z,97978.34
2023-01-05T23:40:48.802Z,97978.84
2023-01-05T23:43:17.389Z,97984.56
2023-01-05T23:45:44.183Z,97971.38
2023-01-05T23:48:12.011Z,97973.75
2023-01-05T23:50:46.036Z,97975.31
2023-01-05T23:53:13.155Z,97968.69
2023-01-05T23:55:40.762Z,97963.41
2023-01-05T23:58:08.239Z,97959.72
